Terminal Aerodrome Forecast
Issued by NWS Atlanta, GA

Home | Current Version | Previous Version | Text Only | Print | Product List | Glossary On
Versions: 1 2 3 4 5 6 7 8 9 10 11 12 13 14 15 16 17 18 19 20 21 22 23 24 25 26 27 28 29 30 31 32
543
FTAK31 PAJN 082333
TAFAHN
TAF
PAHN 082333Z 0900/0924 29012KT 5SM -RA BR SCT015 BKN040 OVC060
      TEMPO 0900/0904 1 1/2SM -SN SCT010 OVC025
     FM090400 30007KT 3SM -RASN BR BKN010 OVC030
     FM090800 08009KT 2SM -RA BR SCT002 BKN008 OVC030
     FM091700 30012KT 6SM -RA SCT010 BKN025 OVC040
      AMD LTD TO CLD VIS AND WIND=

USA.gov is the U.S. government's official web portal to all federal, state and local government web resources and services.